Terminal Aerodrome Forecast
Issued by NWS

Home | Current Version | Previous Version | Text Only | Print | Product List | Glossary On
Versions: 1 2 3 4 5 6 7 8 9 10 11 12 13 14 15 16 17 18 19 20
264
FTUS41 KOKX 081127
TAFSWF
TAF
KSWF 081127Z 0812/0918 03013G19KT P6SM BKN025 BKN100
     FM081400 03013G20KT 6SM -SN BR SCT015 OVC025
     FM081600 02013KT 2SM -SN BKN015 OVC025
     FM082000 03006KT P6SM VCSH OVC025
     FM090000 08005KT P6SM VCSH BKN025
     FM091200 09006KT 5SM -SN OVC025
      AMD NOT SKED=

USA.gov is the U.S. government's official web portal to all federal, state and local government web resources and services.